createdAt,value
2023-05-02T00:02:17.959Z,96536.31
2023-05-02T00:04:44.897Z,96535.69
2023-05-02T00:07:11.958Z,96537.50
2023-05-02T00:09:38.849Z,96529.41
2023-05-02T00:12:05.825Z,96528.59
2023-05-02T00:14:33.005Z,96531.03
2023-05-02T00:16:59.911Z,96537.50
2023-05-02T00:19:26.922Z,96533.03
2023-05-02T00:21:53.729Z,96528.94
2023-05-02T00:24:20.572Z,96534.47
2023-05-02T00:26:47.515Z,96534.44
2023-05-02T00:29:14.296Z,96531.81
2023-05-02T00:31:42.137Z,96529.75
2023-05-02T00:34:09.082Z,96521.66
2023-05-02T00:36:35.979Z,96526.13
2023-05-02T00:39:02.791Z,96528.56
2023-05-02T00:41:29.675Z,96524.50
2023-05-02T00:43:56.838Z,96530.97
2023-05-02T00:46:23.880Z,96529.34
2023-05-02T00:48:51.186Z,96521.22
2023-05-02T00:51:18.280Z,96537.00
2023-05-02T00:53:45.436Z,96531.72
2023-05-02T00:56:12.227Z,96542.28
2023-05-02T00:58:41.111Z,96539.00
2023-05-02T01:01:27.027Z,96537.38
2023-05-02T01:04:27.882Z,96538.19
2023-05-02T01:07:28.169Z,96545.88
2023-05-02T01:10:37.917Z,96535.75
2023-05-02T01:13:10.393Z,96535.34
2023-05-02T01:15:41.261Z,96537.38
2023-05-02T01:18:12.178Z,96538.38
2023-05-02T01:20:43.710Z,96540.63
2023-05-02T01:24:07.096Z,96537.34
2023-05-02T01:26:59.048Z,96545.06
2023-05-02T01:29:29.673Z,96541.78
2023-05-02T01:31:58.628Z,96547.84
2023-05-02T01:34:27.816Z,96549.47
2023-05-02T01:36:56.655Z,96552.56
2023-05-02T01:39:26.175Z,96559.44
2023-05-02T01:41:58.441Z,96555.19
2023-05-02T01:44:27.557Z,96561.63
2023-05-02T01:46:56.423Z,96563.91
2023-05-02T01:49:25.437Z,96552.75
2023-05-02T01:51:52.947Z,96561.97
2023-05-02T01:54:23.563Z,96564.44
2023-05-02T01:56:52.376Z,96560.00
2023-05-02T01:59:23.183Z,96568.53
2023-05-02T02:01:51.961Z,96566.06
2023-05-02T02:04:21.900Z,96561.59
2023-05-02T02:07:00.893Z,96567.00
2023-05-02T02:09:27.774Z,96557.31
2023-05-02T02:12:06.397Z,96567.25
2023-05-02T02:14:59.737Z,96564.78
2023-05-02T02:17:37.852Z,96576.91
2023-05-02T02:20:09.882Z,96574.47
2023-05-02T02:22:39.846Z,96572.38
2023-05-02T02:25:12.322Z,96562.88
2023-05-02T02:27:41.261Z,96572.53
2023-05-02T02:30:12.029Z,96569.28
2023-05-02T02:32:38.955Z,96577.94
2023-05-02T02:35:07.178Z,96585.47
2023-05-02T02:37:42.195Z,96584.47
2023-05-02T02:40:21.213Z,96590.47
2023-05-02T02:43:15.454Z,96589.88
2023-05-02T02:46:15.336Z,96594.13
2023-05-02T02:49:01.286Z,96598.53
2023-05-02T02:51:38.987Z,96605.47
2023-05-02T02:54:26.841Z,96605.47
2023-05-02T02:57:07.896Z,96607.41
2023-05-02T02:59:42.492Z,96604.66
2023-05-02T03:02:13.257Z,96605.88
2023-05-02T03:04:43.605Z,96603.25
2023-05-02T03:07:10.745Z,96606.25
2023-05-02T03:09:45.638Z,96606.47
2023-05-02T03:12:13.208Z,96617.34
2023-05-02T03:14:41.019Z,96609.50
2023-05-02T03:17:10.743Z,96618.03
2023-05-02T03:19:37.571Z,96620.03
2023-05-02T03:22:05.835Z,96620.44
2023-05-02T03:24:32.715Z,96623.44
2023-05-02T03:26:59.995Z,96617.13
2023-05-02T03:29:27.068Z,96622.44
2023-05-02T03:31:53.884Z,96622.19
2023-05-02T03:34:22.152Z,96623.19
2023-05-02T03:36:49.287Z,96621.19
2023-05-02T03:39:16.262Z,96627.63
2023-05-02T03:41:43.914Z,96625.19
2023-05-02T03:44:11.037Z,96624.59
2023-05-02T03:46:38.199Z,96627.16
2023-05-02T03:49:05.294Z,96631.59
2023-05-02T03:51:33.897Z,96630.09
2023-05-02T03:54:02.742Z,96634.38
2023-05-02T03:56:29.740Z,96643.38
2023-05-02T03:58:56.692Z,96645.41
2023-05-02T04:01:23.658Z,96651.19
2023-05-02T04:03:52.379Z,96645.13
2023-05-02T04:06:19.334Z,96650.38
2023-05-02T04:08:46.319Z,96646.53
2023-05-02T04:11:13.126Z,96655.47
2023-05-02T04:13:40.045Z,96660.13
2023-05-02T04:16:07.105Z,96662.38
2023-05-02T04:18:34.007Z,96663.63
2023-05-02T04:21:00.836Z,96655.94
2023-05-02T04:23:27.752Z,96660.00
2023-05-02T04:25:56.221Z,96665.28
2023-05-02T04:28:23.332Z,96668.50
2023-05-02T04:30:50.606Z,96671.41
2023-05-02T04:33:18.578Z,96674.31
2023-05-02T04:35:46.082Z,96680.63
2023-05-02T04:38:13.098Z,96686.19
2023-05-02T04:40:40.175Z,96679.13
2023-05-02T04:43:07.513Z,96685.06
2023-05-02T04:45:37.238Z,96678.28
2023-05-02T04:48:05.110Z,96677.53
2023-05-02T04:50:32.342Z,96694.16
2023-05-02T04:52:59.539Z,96696.03
2023-05-02T04:55:26.455Z,96695.25
2023-05-02T04:57:53.425Z,96700.00
2023-05-02T05:00:20.731Z,96701.47
2023-05-02T05:02:47.728Z,96700.72
2023-05-02T05:05:15.918Z,96719.50
2023-05-02T05:07:43.432Z,96709.78
2023-05-02T05:10:11.457Z,96710.69
2023-05-02T05:12:38.320Z,96709.31
2023-05-02T05:15:05.749Z,96716.09
2023-05-02T05:17:32.756Z,96717.25
2023-05-02T05:19:59.864Z,96719.75
2023-05-02T05:22:27.055Z,96729.38
2023-05-02T05:24:54.912Z,96735.09
2023-05-02T05:27:22.061Z,96723.28
2023-05-02T05:29:48.908Z,96728.44
2023-05-02T05:32:15.786Z,96724.03
2023-05-02T05:34:42.796Z,96729.19
2023-05-02T05:37:09.704Z,96723.66
2023-05-02T05:39:36.540Z,96725.31
2023-05-02T05:42:03.692Z,96733.47
2023-05-02T05:44:31.597Z,96734.25
2023-05-02T05:46:58.526Z,96742.00
2023-05-02T05:49:25.405Z,96742.00
2023-05-02T05:51:52.324Z,96740.84
2023-05-02T05:54:19.171Z,96742.88
2023-05-02T05:56:46.263Z,96750.97
2023-05-02T05:59:13.550Z,96745.31
2023-05-02T06:01:41.089Z,96748.94
2023-05-02T06:04:08.032Z,96755.38
2023-05-02T06:06:35.314Z,96757.41
2023-05-02T06:09:02.561Z,96757.69
2023-05-02T06:11:29.669Z,96763.16
2023-05-02T06:13:56.452Z,96761.94
2023-05-02T06:16:23.422Z,96773.44
2023-05-02T06:18:52.807Z,96780.09
2023-05-02T06:21:19.733Z,96783.34
2023-05-02T06:23:46.806Z,96785.97
2023-05-02T06:26:13.740Z,96791.50
2023-05-02T06:28:40.583Z,96795.97
2023-05-02T06:31:07.546Z,96789.56
2023-05-02T06:33:35.391Z,96795.75
2023-05-02T06:36:02.956Z,96794.78
2023-05-02T06:38:30.014Z,96800.00
2023-05-02T06:40:56.848Z,96800.06
2023-05-02T06:43:23.795Z,96805.25
2023-05-02T06:45:54.589Z,96803.84
2023-05-02T06:48:21.876Z,96792.63
2023-05-02T06:50:49.564Z,96803.53
2023-05-02T06:53:16.433Z,96804.72
2023-05-02T06:55:44.968Z,96811.53
2023-05-02T06:58:11.934Z,96809.97
2023-05-02T07:00:38.783Z,96817.03
2023-05-02T07:03:05.696Z,96823.28
2023-05-02T07:05:32.568Z,96817.31
2023-05-02T07:07:59.637Z,96826.41
2023-05-02T07:10:26.563Z,96828.69
2023-05-02T07:12:53.649Z,96824.03
2023-05-02T07:15:20.522Z,96821.91
2023-05-02T07:17:47.822Z,96827.22
2023-05-02T07:20:15.637Z,96830.53
2023-05-02T07:22:43.115Z,96825.06
2023-05-02T07:25:10.856Z,96822.38
2023-05-02T07:27:37.784Z,96825.38
2023-05-02T07:30:06.548Z,96820.25
2023-05-02T07:32:33.458Z,96820.06
2023-05-02T07:35:00.437Z,96822.28
2023-05-02T07:37:27.395Z,96823.63
2023-05-02T07:39:54.266Z,96820.94
2023-05-02T07:42:21.058Z,96819.28
2023-05-02T07:44:47.929Z,96819.19
2023-05-02T07:47:14.753Z,96821.47
2023-05-02T07:49:41.648Z,96825.94
2023-05-02T07:52:08.510Z,96828.72
2023-05-02T07:54:35.768Z,96830.16
2023-05-02T07:57:03.540Z,96833.59
2023-05-02T07:59:31.969Z,96835.09
2023-05-02T08:01:58.936Z,96843.34
2023-05-02T08:04:26.283Z,96839.59
2023-05-02T08:06:53.421Z,96846.19
2023-05-02T08:09:20.476Z,96841.59
2023-05-02T08:11:47.589Z,96842.19
2023-05-02T08:14:16.225Z,96847.88
2023-05-02T08:16:46.076Z,96847.19
2023-05-02T08:19:13.497Z,96848.44
2023-05-02T08:21:40.466Z,96846.22
2023-05-02T08:24:07.308Z,96845.78
2023-05-02T08:26:34.170Z,96849.34
2023-05-02T08:29:01.197Z,96843.44
2023-05-02T08:31:28.088Z,96848.09
2023-05-02T08:33:54.913Z,96852.63
2023-05-02T08:36:21.970Z,96850.56
2023-05-02T08:38:49.543Z,96856.19
2023-05-02T08:41:18.931Z,96853.44
2023-05-02T08:43:47.127Z,96850.00
2023-05-02T08:46:17.284Z,96857.34
2023-05-02T08:48:48.050Z,96844.28
2023-05-02T08:51:17.347Z,96855.72
2023-05-02T08:53:45.039Z,96856.53
2023-05-02T08:56:13.063Z,96855.22
2023-05-02T08:58:41.237Z,96864.56
2023-05-02T09:01:17.256Z,96856.84
2023-05-02T09:03:46.609Z,96861.41
2023-05-02T09:06:22.112Z,96862.47
2023-05-02T09:08:52.306Z,96878.91
2023-05-02T09:11:20.117Z,96872.03
2023-05-02T09:13:52.208Z,96882.38
2023-05-02T09:16:25.922Z,96882.19
2023-05-02T09:18:55.927Z,96876.50
2023-05-02T09:21:39.945Z,96880.44
2023-05-02T09:24:21.813Z,96887.91
2023-05-02T09:27:02.885Z,96885.59
2023-05-02T09:29:35.914Z,96886.22
2023-05-02T09:32:05.803Z,96894.38
2023-05-02T09:34:34.041Z,96889.81
2023-05-02T09:37:01.536Z,96892.72
2023-05-02T09:39:29.559Z,96896.53
2023-05-02T09:41:57.983Z,96895.06
2023-05-02T09:44:27.812Z,96898.22
2023-05-02T09:46:57.419Z,96896.59
2023-05-02T09:49:45.505Z,96896.31
2023-05-02T09:52:18.330Z,96899.66
2023-05-02T09:54:52.708Z,96906.25
2023-05-02T09:57:19.928Z,96900.97
2023-05-02T09:59:58.228Z,96897.56
2023-05-02T10:02:25.820Z,96893.88
2023-05-02T10:04:57.024Z,96897.13
2023-05-02T10:07:25.169Z,96896.13
2023-05-02T10:09:55.379Z,96905.75
2023-05-02T10:12:25.970Z,96909.22
2023-05-02T10:15:01.230Z,96908.88
2023-05-02T10:17:32.061Z,96911.59
2023-05-02T10:20:06.485Z,96912.59
2023-05-02T10:22:37.152Z,96908.44
2023-05-02T10:25:05.033Z,96916.50
2023-05-02T10:27:32.873Z,96916.50
2023-05-02T10:30:00.992Z,96914.53
2023-05-02T10:32:34.698Z,96909.03
2023-05-02T10:35:06.883Z,96906.03
2023-05-02T10:37:36.704Z,96906.09
2023-05-02T10:40:05.894Z,96901.72
2023-05-02T10:42:39.367Z,96901.22
2023-05-02T10:45:36.983Z,96904.91
2023-05-02T10:48:27.433Z,96900.28
2023-05-02T10:51:01.829Z,96903.88
2023-05-02T10:53:37.040Z,96896.22
2023-05-02T10:56:21.147Z,96906.25
2023-05-02T10:58:50.327Z,96905.44
2023-05-02T11:01:29.418Z,96900.78
2023-05-02T11:04:01.683Z,96901.56
2023-05-02T11:06:30.945Z,96900.19
2023-05-02T11:09:16.124Z,96899.84
2023-05-02T11:11:45.023Z,96899.44
2023-05-02T11:14:38.239Z,96900.91
2023-05-02T11:17:05.038Z,96901.00
2023-05-02T11:19:37.841Z,96900.31
2023-05-02T11:22:20.550Z,96893.50
2023-05-02T11:24:49.133Z,96898.44
2023-05-02T11:27:39.141Z,96887.66
2023-05-02T11:30:10.690Z,96874.81
2023-05-02T11:32:47.640Z,96884.34
2023-05-02T11:35:24.841Z,96884.44
2023-05-02T11:38:03.278Z,96879.00
2023-05-02T11:40:31.676Z,96883.34
2023-05-02T11:43:00.522Z,96879.25
2023-05-02T11:45:37.174Z,96879.97
2023-05-02T11:48:08.570Z,96887.44
2023-05-02T11:50:49.620Z,96890.41
2023-05-02T11:53:23.113Z,96891.34
2023-05-02T11:55:56.016Z,96885.84
2023-05-02T11:58:25.678Z,96887.97
2023-05-02T12:00:53.898Z,96881.97
2023-05-02T12:03:31.686Z,96880.81
2023-05-02T12:06:12.898Z,96887.28
2023-05-02T12:08:43.842Z,96884.72
2023-05-02T12:11:15.544Z,96878.09
2023-05-02T12:13:50.632Z,96883.81
2023-05-02T12:16:18.720Z,96888.19
2023-05-02T12:18:47.248Z,96877.53
2023-05-02T12:21:14.371Z,96868.84
2023-05-02T12:23:42.455Z,96886.91
2023-05-02T12:26:25.089Z,96891.88
2023-05-02T12:28:54.671Z,96892.06
2023-05-02T12:31:22.517Z,96905.44
2023-05-02T12:33:51.755Z,96908.94
2023-05-02T12:36:19.785Z,96914.31
2023-05-02T12:38:57.052Z,96917.59
2023-05-02T12:41:39.406Z,96923.06
2023-05-02T12:44:10.036Z,96923.56
2023-05-02T12:46:37.010Z,96934.53
2023-05-02T12:49:09.261Z,96935.91
2023-05-02T12:51:36.807Z,96934.25
2023-05-02T12:54:04.774Z,96929.09
2023-05-02T12:56:40.018Z,96929.00
2023-05-02T12:59:07.886Z,96929.50
2023-05-02T13:01:35.476Z,96923.84
2023-05-02T13:04:02.730Z,96934.13
2023-05-02T13:06:29.823Z,96933.41
2023-05-02T13:08:57.043Z,96930.69
2023-05-02T13:11:24.193Z,96930.00
2023-05-02T13:13:51.193Z,96920.63
2023-05-02T13:16:18.454Z,96926.00
2023-05-02T13:18:47.202Z,96924.06
2023-05-02T13:21:14.733Z,96929.38
2023-05-02T13:23:41.574Z,96928.59
2023-05-02T13:26:08.965Z,96923.50
2023-05-02T13:28:37.418Z,96928.38
2023-05-02T13:31:04.554Z,96938.38
2023-05-02T13:33:31.450Z,96931.00
2023-05-02T13:35:58.314Z,96933.78
2023-05-02T13:38:25.610Z,96935.88
2023-05-02T13:40:54.163Z,96937.72
2023-05-02T13:43:21.123Z,96944.78
2023-05-02T13:45:48.932Z,96939.84
2023-05-02T13:48:16.247Z,96945.88
2023-05-02T13:50:43.326Z,96939.69
2023-05-02T13:53:11.251Z,96944.19
2023-05-02T13:55:38.209Z,96944.19
2023-05-02T13:58:05.801Z,96948.03
2023-05-02T14:00:32.917Z,96948.72
2023-05-02T14:02:59.824Z,96944.38
2023-05-02T14:05:26.788Z,96950.13
2023-05-02T14:07:53.616Z,96945.13
2023-05-02T14:10:20.456Z,96944.88
2023-05-02T14:12:47.761Z,96952.00
2023-05-02T14:15:14.771Z,96944.78
2023-05-02T14:17:41.721Z,96957.28
2023-05-02T14:20:10.491Z,96941.72
2023-05-02T14:22:37.522Z,96941.63
2023-05-02T14:25:05.838Z,96945.72
2023-05-02T14:27:32.750Z,96943.03
2023-05-02T14:29:59.575Z,96946.69
2023-05-02T14:32:26.815Z,96940.84
2023-05-02T14:34:53.713Z,96931.84
2023-05-02T14:37:20.519Z,96935.53
2023-05-02T14:39:51.138Z,96936.19
2023-05-02T14:42:19.014Z,96934.50
2023-05-02T14:44:46.200Z,96947.50
2023-05-02T14:47:13.213Z,96938.34
2023-05-02T14:49:40.230Z,96942.53
2023-05-02T14:52:07.287Z,96936.31
2023-05-02T14:54:34.166Z,96945.16
2023-05-02T14:57:02.172Z,96930.16
2023-05-02T14:59:29.916Z,96924.34
2023-05-02T15:01:57.336Z,96930.66
2023-05-02T15:04:26.101Z,96935.00
2023-05-02T15:06:54.457Z,96940.47
2023-05-02T15:09:21.581Z,96938.75
2023-05-02T15:11:48.507Z,96932.22
2023-05-02T15:14:15.331Z,96943.28
2023-05-02T15:16:42.238Z,96945.19
2023-05-02T15:19:09.053Z,96935.50
2023-05-02T15:21:36.185Z,96938.72
2023-05-02T15:24:03.869Z,96926.22
2023-05-02T15:26:30.979Z,96927.66
2023-05-02T15:28:58.128Z,96930.88
2023-05-02T15:31:25.201Z,96924.50
2023-05-02T15:33:52.140Z,96921.16
2023-05-02T15:36:19.006Z,96924.47
2023-05-02T15:38:45.884Z,96929.78
2023-05-02T15:41:12.757Z,96932.69
2023-05-02T15:43:39.666Z,96941.31
2023-05-02T15:46:06.595Z,96974.34
2023-05-02T15:48:34.687Z,96989.03
2023-05-02T15:51:03.058Z,96986.63
2023-05-02T15:53:30.080Z,96993.09
2023-05-02T15:55:57.121Z,96991.72
2023-05-02T15:58:23.913Z,97010.13
2023-05-02T16:00:52.352Z,97011.84
2023-05-02T16:03:19.429Z,97017.94
2023-05-02T16:05:46.551Z,97025.28
2023-05-02T16:08:13.593Z,97026.16
2023-05-02T16:10:42.746Z,97023.75
2023-05-02T16:13:09.941Z,97017.28
2023-05-02T16:15:36.838Z,97029.06
2023-05-02T16:18:03.977Z,97020.75
2023-05-02T16:20:33.917Z,97031.69
2023-05-02T16:23:00.813Z,97031.84
2023-05-02T16:25:27.870Z,97033.50
2023-05-02T16:27:54.808Z,97021.28
2023-05-02T16:30:21.908Z,97035.69
2023-05-02T16:32:48.924Z,97037.16
2023-05-02T16:35:15.935Z,97035.53
2023-05-02T16:37:42.944Z,97033.91
2023-05-02T16:40:11.089Z,97034.94
2023-05-02T16:42:39.218Z,97045.75
2023-05-02T16:45:07.471Z,97046.56
2023-05-02T16:47:35.688Z,97046.19
2023-05-02T16:50:03.423Z,97055.75
2023-05-02T16:52:30.647Z,97053.09
2023-05-02T16:54:57.522Z,97051.84
2023-05-02T16:57:24.434Z,97055.13
2023-05-02T16:59:52.526Z,97052.09
2023-05-02T17:02:21.933Z,97066.53
2023-05-02T17:04:50.060Z,97060.81
2023-05-02T17:07:17.529Z,97066.09
2023-05-02T17:09:44.744Z,97057.56
2023-05-02T17:12:12.863Z,97066.91
2023-05-02T17:14:42.465Z,97071.41
2023-05-02T17:17:10.098Z,97075.06
2023-05-02T17:19:37.227Z,97070.59
2023-05-02T17:22:05.283Z,97072.63
2023-05-02T17:24:33.092Z,97073.44
2023-05-02T17:27:00.936Z,97074.66
2023-05-02T17:29:27.972Z,97062.44
2023-05-02T17:32:00.476Z,97066.53
2023-05-02T17:34:30.158Z,97060.41
2023-05-02T17:36:57.009Z,97061.25
2023-05-02T17:39:23.894Z,97059.22
2023-05-02T17:41:50.827Z,97064.50
2023-05-02T17:44:17.704Z,97073.84
2023-05-02T17:46:44.694Z,97071.34
2023-05-02T17:49:11.627Z,97075.00
2023-05-02T17:51:38.582Z,97070.69
2023-05-02T17:54:05.634Z,97072.53
2023-05-02T17:56:35.012Z,97072.16
2023-05-02T17:59:01.885Z,97075.38
2023-05-02T18:01:28.817Z,97088.81
2023-05-02T18:03:55.844Z,97091.97
2023-05-02T18:06:23.118Z,97095.41
2023-05-02T18:08:50.005Z,97102.53
2023-05-02T18:11:18.463Z,97100.63
2023-05-02T18:13:46.157Z,97104.66
2023-05-02T18:16:14.061Z,97104.84
2023-05-02T18:18:41.730Z,97097.13
2023-05-02T18:21:09.714Z,97096.25
2023-05-02T18:23:36.679Z,97108.84
2023-05-02T18:26:03.895Z,97121.00
2023-05-02T18:28:30.920Z,97125.06
2023-05-02T18:30:57.821Z,97122.41
2023-05-02T18:33:24.738Z,97119.34
2023-05-02T18:35:51.583Z,97123.69
2023-05-02T18:38:19.591Z,97117.97
2023-05-02T18:40:46.507Z,97125.44
2023-05-02T18:43:13.446Z,97122.38
2023-05-02T18:45:40.560Z,97133.69
2023-05-02T18:48:07.495Z,97133.72
2023-05-02T18:50:34.448Z,97128.97
2023-05-02T18:53:01.262Z,97134.16
2023-05-02T18:55:28.096Z,97138.16
2023-05-02T18:57:55.088Z,97145.66
2023-05-02T19:00:23.403Z,97156.94
2023-05-02T19:02:53.426Z,97162.56
2023-05-02T19:05:20.473Z,97160.09
2023-05-02T19:07:47.467Z,97152.47
2023-05-02T19:10:14.506Z,97160.13
2023-05-02T19:12:42.027Z,97159.03
2023-05-02T19:15:11.278Z,97162.41
2023-05-02T19:17:38.210Z,97165.22
2023-05-02T19:20:06.093Z,97162.16
2023-05-02T19:22:34.662Z,97162.22
2023-05-02T19:25:02.146Z,97161.81
2023-05-02T19:27:29.459Z,97165.16
2023-05-02T19:29:58.074Z,97165.72
2023-05-02T19:32:25.376Z,97166.88
2023-05-02T19:34:52.286Z,97169.25
2023-05-02T19:37:19.156Z,97170.41
2023-05-02T19:39:46.012Z,97176.06
2023-05-02T19:42:12.816Z,97175.56
2023-05-02T19:44:39.656Z,97176.28
2023-05-02T19:47:06.515Z,97178.66
2023-05-02T19:49:33.340Z,97179.91
2023-05-02T19:52:00.901Z,97175.81
2023-05-02T19:54:27.782Z,97187.81
2023-05-02T19:56:54.636Z,97192.13
2023-05-02T19:59:21.494Z,97187.59
2023-05-02T20:01:48.585Z,97195.19
2023-05-02T20:04:15.560Z,97189.00
2023-05-02T20:06:43.139Z,97188.91
2023-05-02T20:09:11.446Z,97191.31
2023-05-02T20:11:38.358Z,97193.56
2023-05-02T20:14:05.234Z,97187.72
2023-05-02T20:16:32.739Z,97195.78
2023-05-02T20:18:59.652Z,97202.16
2023-05-02T20:21:26.951Z,97192.84
2023-05-02T20:23:53.788Z,97198.91
2023-05-02T20:26:21.304Z,97203.69
2023-05-02T20:28:48.767Z,97207.66
2023-05-02T20:31:16.931Z,97210.28
2023-05-02T20:33:45.974Z,97202.72
2023-05-02T20:36:14.822Z,97207.38
2023-05-02T20:38:42.998Z,97204.75
2023-05-02T20:41:14.644Z,97198.53
2023-05-02T20:43:44.580Z,97200.38
2023-05-02T20:46:14.050Z,97199.22
2023-05-02T20:48:41.371Z,97204.81
2023-05-02T20:51:08.578Z,97204.47
2023-05-02T20:53:37.688Z,97210.56
2023-05-02T20:56:04.846Z,97211.28
2023-05-02T20:58:31.688Z,97211.47
2023-05-02T21:00:58.900Z,97204.13
2023-05-02T21:03:27.561Z,97198.44
2023-05-02T21:05:56.448Z,97202.38
2023-05-02T21:08:23.762Z,97197.31
2023-05-02T21:10:51.371Z,97206.69
2023-05-02T21:13:18.236Z,97204.75
2023-05-02T21:15:45.206Z,97201.47
2023-05-02T21:18:12.158Z,97199.81
2023-05-02T21:20:41.393Z,97200.19
2023-05-02T21:23:11.113Z,97202.00
2023-05-02T21:25:38.536Z,97192.84
2023-05-02T21:28:05.893Z,97190.72
2023-05-02T21:30:32.991Z,97192.84
2023-05-02T21:32:59.949Z,97198.28
2023-05-02T21:35:27.421Z,97202.88
2023-05-02T21:37:54.332Z,97200.56
2023-05-02T21:40:21.281Z,97196.75
2023-05-02T21:42:48.127Z,97195.00
2023-05-02T21:45:15.096Z,97199.09
2023-05-02T21:47:42.007Z,97196.28
2023-05-02T21:50:09.124Z,97187.44
2023-05-02T21:52:36.294Z,97197.47
2023-05-02T21:55:03.424Z,97194.03
2023-05-02T21:57:30.203Z,97188.31
2023-05-02T21:59:57.050Z,97192.06
2023-05-02T22:02:24.072Z,97206.97
2023-05-02T22:04:51.054Z,97196.97
2023-05-02T22:07:17.913Z,97198.13
2023-05-02T22:09:44.829Z,97190.41
2023-05-02T22:12:11.759Z,97191.41
2023-05-02T22:14:45.013Z,97194.38
2023-05-02T22:17:13.362Z,97188.78
2023-05-02T22:19:40.500Z,97192.06
2023-05-02T22:22:07.583Z,97199.09
2023-05-02T22:24:34.513Z,97205.84
2023-05-02T22:27:01.482Z,97209.44
2023-05-02T22:29:28.479Z,97217.28
2023-05-02T22:31:55.704Z,97215.94
2023-05-02T22:34:23.077Z,97209.72
2023-05-02T22:36:50.052Z,97206.94
2023-05-02T22:39:16.959Z,97205.81
2023-05-02T22:41:43.894Z,97204.97
2023-05-02T22:44:11.557Z,97209.06
2023-05-02T22:46:38.992Z,97210.53
2023-05-02T22:49:11.785Z,97206.75
2023-05-02T22:51:40.320Z,97210.66
2023-05-02T22:54:08.018Z,97210.28
2023-05-02T22:56:35.176Z,97212.25
2023-05-02T22:59:02.048Z,97212.59
2023-05-02T23:01:29.045Z,97213.22
2023-05-02T23:03:56.218Z,97216.22
2023-05-02T23:06:23.228Z,97215.22
2023-05-02T23:08:50.722Z,97219.47
2023-05-02T23:11:17.705Z,97216.22
2023-05-02T23:13:44.483Z,97212.59
2023-05-02T23:16:11.398Z,97216.22
2023-05-02T23:18:38.238Z,97213.59
2023-05-02T23:21:05.264Z,97213.59
2023-05-02T23:23:32.204Z,97209.19
2023-05-02T23:25:59.103Z,97208.34
2023-05-02T23:28:26.545Z,97210.34
2023-05-02T23:30:53.859Z,97200.50
2023-05-02T23:33:21.069Z,97204.41
2023-05-02T23:35:48.413Z,97204.09
2023-05-02T23:38:15.547Z,97198.53
2023-05-02T23:40:42.481Z,97195.28
2023-05-02T23:43:09.860Z,97197.22
2023-05-02T23:45:36.743Z,97205.06
2023-05-02T23:48:03.693Z,97201.94
2023-05-02T23:50:32.411Z,97200.78
2023-05-02T23:52:59.209Z,97196.53
2023-05-02T23:55:26.106Z,97199.81
2023-05-02T23:57:52.971Z,97205.03
